sensor_id;sensor_type;location;lat;lon;timestamp;P1;durP1;ratioP1;P2;durP2;ratioP2
23015;SDS011;11674;52.428;13.584;2023-01-20T00:04:50;19.92;;;10.40;;
23015;SDS011;11674;52.428;13.584;2023-01-20T00:09:57;18.92;;;10.80;;
23015;SDS011;11674;52.428;13.584;2023-01-20T00:15:05;22.35;;;13.63;;
23015;SDS011;11674;52.428;13.584;2023-01-20T00:20:12;19.83;;;11.35;;
23015;SDS011;11674;52.428;13.584;2023-01-20T00:25:19;19.63;;;10.45;;
23015;SDS011;11674;52.428;13.584;2023-01-20T00:30:33;23.60;;;11.68;;
23015;SDS011;11674;52.428;13.584;2023-01-20T00:35:40;26.40;;;11.40;;
23015;SDS011;11674;52.428;13.584;2023-01-20T00:40:52;23.98;;;11.70;;
23015;SDS011;11674;52.428;13.584;2023-01-20T00:45:59;21.02;;;10.60;;
23015;SDS011;11674;52.428;13.584;2023-01-20T00:51:06;22.45;;;10.85;;
23015;SDS011;11674;52.428;13.584;2023-01-20T00:56:14;21.70;;;11.40;;
23015;SDS011;11674;52.428;13.584;2023-01-20T01:01:21;18.65;;;10.57;;
23015;SDS011;11674;52.428;13.584;2023-01-20T01:06:28;19.30;;;11.30;;
23015;SDS011;11674;52.428;13.584;2023-01-20T01:11:35;22.60;;;11.23;;
23015;SDS011;11674;52.428;13.584;2023-01-20T01:16:42;19.15;;;10.10;;
23015;SDS011;11674;52.428;13.584;2023-01-20T01:21:49;24.35;;;11.18;;
23015;SDS011;11674;52.428;13.584;2023-01-20T01:26:56;21.00;;;11.52;;
23015;SDS011;11674;52.428;13.584;2023-01-20T01:32:03;24.52;;;12.00;;
23015;SDS011;11674;52.428;13.584;2023-01-20T01:37:11;21.92;;;12.27;;
23015;SDS011;11674;52.428;13.584;2023-01-20T01:42:19;23.90;;;11.57;;
23015;SDS011;11674;52.428;13.584;2023-01-20T01:47:29;29.25;;;12.05;;
23015;SDS011;11674;52.428;13.584;2023-01-20T01:52:37;17.88;;;10.65;;
23015;SDS011;11674;52.428;13.584;2023-01-20T01:57:46;21.98;;;11.63;;
23015;SDS011;11674;52.428;13.584;2023-01-20T02:02:54;23.60;;;10.73;;
23015;SDS011;11674;52.428;13.584;2023-01-20T02:08:02;21.63;;;11.38;;
23015;SDS011;11674;52.428;13.584;2023-01-20T02:13:09;22.23;;;11.18;;
23015;SDS011;11674;52.428;13.584;2023-01-20T02:18:34;17.92;;;10.15;;
23015;SDS011;11674;52.428;13.584;2023-01-20T02:24:05;20.25;;;10.52;;
23015;SDS011;11674;52.428;13.584;2023-01-20T02:34:58;20.60;;;10.38;;
23015;SDS011;11674;52.428;13.584;2023-01-20T02:40:24;26.30;;;10.82;;
23015;SDS011;11674;52.428;13.584;2023-01-20T02:45:40;24.30;;;10.82;;
23015;SDS011;11674;52.428;13.584;2023-01-20T02:51:15;22.58;;;10.88;;
23015;SDS011;11674;52.428;13.584;2023-01-20T02:56:28;21.08;;;9.85;;
23015;SDS011;11674;52.428;13.584;2023-01-20T03:01:36;23.90;;;9.85;;
23015;SDS011;11674;52.428;13.584;2023-01-20T03:06:49;18.08;;;9.48;;
23015;SDS011;11674;52.428;13.584;2023-01-20T03:12:00;16.70;;;9.30;;
23015;SDS011;11674;52.428;13.584;2023-01-20T03:17:14;18.67;;;9.00;;
23015;SDS011;11674;52.428;13.584;2023-01-20T03:22:21;20.77;;;9.45;;
23015;SDS011;11674;52.428;13.584;2023-01-20T03:27:28;21.30;;;8.77;;
23015;SDS011;11674;52.428;13.584;2023-01-20T03:32:35;21.48;;;9.35;;
23015;SDS011;11674;52.428;13.584;2023-01-20T03:37:42;20.02;;;8.90;;
23015;SDS011;11674;52.428;13.584;2023-01-20T03:48:37;16.75;;;9.20;;
23015;SDS011;11674;52.428;13.584;2023-01-20T03:54:24;22.40;;;8.13;;
23015;SDS011;11674;52.428;13.584;2023-01-20T03:59:27;19.15;;;8.43;;
23015;SDS011;11674;52.428;13.584;2023-01-20T04:04:38;17.63;;;8.93;;
23015;SDS011;11674;52.428;13.584;2023-01-20T04:09:50;20.50;;;8.68;;
23015;SDS011;11674;52.428;13.584;2023-01-20T04:15:00;19.08;;;8.68;;
23015;SDS011;11674;52.428;13.584;2023-01-20T04:20:07;20.13;;;9.20;;
23015;SDS011;11674;52.428;13.584;2023-01-20T04:25:37;18.25;;;10.02;;
23015;SDS011;11674;52.428;13.584;2023-01-20T04:30:44;19.20;;;9.73;;
23015;SDS011;11674;52.428;13.584;2023-01-20T04:35:51;18.95;;;10.32;;
23015;SDS011;11674;52.428;13.584;2023-01-20T04:40:58;22.08;;;10.35;;
23015;SDS011;11674;52.428;13.584;2023-01-20T04:46:05;20.50;;;10.80;;
23015;SDS011;11674;52.428;13.584;2023-01-20T04:51:12;26.92;;;10.55;;
23015;SDS011;11674;52.428;13.584;2023-01-20T04:56:20;20.77;;;11.45;;
23015;SDS011;11674;52.428;13.584;2023-01-20T05:01:27;22.10;;;12.25;;
23015;SDS011;11674;52.428;13.584;2023-01-20T05:06:34;30.17;;;12.75;;
23015;SDS011;11674;52.428;13.584;2023-01-20T05:11:42;27.30;;;12.73;;
23015;SDS011;11674;52.428;13.584;2023-01-20T05:16:49;25.98;;;12.38;;
23015;SDS011;11674;52.428;13.584;2023-01-20T05:21:57;31.33;;;13.13;;
23015;SDS011;11674;52.428;13.584;2023-01-20T05:27:11;29.20;;;13.00;;
23015;SDS011;11674;52.428;13.584;2023-01-20T05:32:18;29.95;;;12.77;;
23015;SDS011;11674;52.428;13.584;2023-01-20T05:37:25;27.55;;;13.48;;
23015;SDS011;11674;52.428;13.584;2023-01-20T05:42:32;28.20;;;12.90;;
23015;SDS011;11674;52.428;13.584;2023-01-20T05:47:39;30.48;;;13.07;;
23015;SDS011;11674;52.428;13.584;2023-01-20T05:52:46;28.80;;;13.82;;
23015;SDS011;11674;52.428;13.584;2023-01-20T05:57:53;26.83;;;13.88;;
23015;SDS011;11674;52.428;13.584;2023-01-20T06:03:00;28.98;;;13.07;;
23015;SDS011;11674;52.428;13.584;2023-01-20T06:08:07;28.45;;;14.20;;
23015;SDS011;11674;52.428;13.584;2023-01-20T06:13:14;26.58;;;14.25;;
23015;SDS011;11674;52.428;13.584;2023-01-20T06:18:22;27.75;;;13.77;;
23015;SDS011;11674;52.428;13.584;2023-01-20T06:23:29;27.55;;;13.57;;
23015;SDS011;11674;52.428;13.584;2023-01-20T06:28:36;27.67;;;14.57;;
23015;SDS011;11674;52.428;13.584;2023-01-20T06:33:43;35.75;;;14.68;;
23015;SDS011;11674;52.428;13.584;2023-01-20T06:38:50;32.83;;;16.10;;
23015;SDS011;11674;52.428;13.584;2023-01-20T06:43:57;31.50;;;15.95;;
23015;SDS011;11674;52.428;13.584;2023-01-20T06:49:04;32.33;;;16.63;;
23015;SDS011;11674;52.428;13.584;2023-01-20T06:54:11;39.75;;;16.38;;
23015;SDS011;11674;52.428;13.584;2023-01-20T06:59:18;30.70;;;16.10;;
23015;SDS011;11674;52.428;13.584;2023-01-20T07:04:25;39.42;;;15.27;;
23015;SDS011;11674;52.428;13.584;2023-01-20T07:09:32;37.40;;;15.77;;
23015;SDS011;11674;52.428;13.584;2023-01-20T07:14:39;36.25;;;16.80;;
23015;SDS011;11674;52.428;13.584;2023-01-20T07:19:46;35.45;;;17.50;;
23015;SDS011;11674;52.428;13.584;2023-01-20T07:24:53;31.88;;;16.08;;
23015;SDS011;11674;52.428;13.584;2023-01-20T07:30:00;32.70;;;15.13;;
23015;SDS011;11674;52.428;13.584;2023-01-20T07:35:07;36.45;;;17.60;;
23015;SDS011;11674;52.428;13.584;2023-01-20T07:40:14;32.95;;;15.45;;
23015;SDS011;11674;52.428;13.584;2023-01-20T07:45:21;27.42;;;16.17;;
23015;SDS011;11674;52.428;13.584;2023-01-20T07:50:28;38.88;;;16.00;;
23015;SDS011;11674;52.428;13.584;2023-01-20T07:55:35;32.95;;;16.90;;
23015;SDS011;11674;52.428;13.584;2023-01-20T08:00:42;31.50;;;15.38;;
23015;SDS011;11674;52.428;13.584;2023-01-20T08:05:49;35.60;;;17.83;;
23015;SDS011;11674;52.428;13.584;2023-01-20T08:10:56;35.90;;;17.13;;
23015;SDS011;11674;52.428;13.584;2023-01-20T08:16:04;39.08;;;16.35;;
23015;SDS011;11674;52.428;13.584;2023-01-20T08:21:22;32.50;;;16.67;;
23015;SDS011;11674;52.428;13.584;2023-01-20T08:26:31;33.40;;;15.75;;
23015;SDS011;11674;52.428;13.584;2023-01-20T08:31:38;37.22;;;17.33;;
23015;SDS011;11674;52.428;13.584;2023-01-20T08:36:45;36.60;;;16.52;;
23015;SDS011;11674;52.428;13.584;2023-01-20T08:41:52;36.20;;;17.55;;
23015;SDS011;11674;52.428;13.584;2023-01-20T08:46:59;37.75;;;16.15;;
23015;SDS011;11674;52.428;13.584;2023-01-20T08:52:06;37.65;;;18.13;;
23015;SDS011;11674;52.428;13.584;2023-01-20T08:57:13;44.03;;;16.40;;
23015;SDS011;11674;52.428;13.584;2023-01-20T09:02:20;39.50;;;17.05;;
23015;SDS011;11674;52.428;13.584;2023-01-20T09:07:27;33.80;;;17.13;;
23015;SDS011;11674;52.428;13.584;2023-01-20T09:12:34;38.38;;;16.98;;
23015;SDS011;11674;52.428;13.584;2023-01-20T09:17:41;37.58;;;17.35;;
23015;SDS011;11674;52.428;13.584;2023-01-20T09:22:48;38.97;;;16.27;;
23015;SDS011;11674;52.428;13.584;2023-01-20T09:27:58;36.58;;;16.38;;
23015;SDS011;11674;52.428;13.584;2023-01-20T09:33:08;34.70;;;15.75;;
23015;SDS011;11674;52.428;13.584;2023-01-20T09:38:15;37.33;;;17.05;;
23015;SDS011;11674;52.428;13.584;2023-01-20T09:44:06;38.38;;;17.63;;
23015;SDS011;11674;52.428;13.584;2023-01-20T09:49:23;41.13;;;17.33;;
23015;SDS011;11674;52.428;13.584;2023-01-20T09:54:46;32.97;;;16.83;;
23015;SDS011;11674;52.428;13.584;2023-01-20T10:00:10;38.30;;;17.98;;
23015;SDS011;11674;52.428;13.584;2023-01-20T10:05:24;40.55;;;18.08;;
23015;SDS011;11674;52.428;13.584;2023-01-20T10:10:37;41.80;;;17.38;;
23015;SDS011;11674;52.428;13.584;2023-01-20T10:15:49;35.70;;;16.60;;
23015;SDS011;11674;52.428;13.584;2023-01-20T10:21:13;40.50;;;17.02;;
23015;SDS011;11674;52.428;13.584;2023-01-20T10:31:53;42.58;;;18.40;;
23015;SDS011;11674;52.428;13.584;2023-01-20T10:37:05;35.08;;;16.05;;
23015;SDS011;11674;52.428;13.584;2023-01-20T10:42:15;40.00;;;16.65;;
23015;SDS011;11674;52.428;13.584;2023-01-20T10:53:27;36.85;;;13.10;;
23015;SDS011;11674;52.428;13.584;2023-01-20T10:58:38;38.90;;;17.40;;
23015;SDS011;11674;52.428;13.584;2023-01-20T11:03:48;38.42;;;17.52;;
23015;SDS011;11674;52.428;13.584;2023-01-20T11:08:55;40.03;;;16.50;;
23015;SDS011;11674;52.428;13.584;2023-01-20T11:14:06;38.58;;;18.10;;
23015;SDS011;11674;52.428;13.584;2023-01-20T11:19:13;38.55;;;17.13;;
23015;SDS011;11674;52.428;13.584;2023-01-20T11:24:30;35.25;;;17.35;;
23015;SDS011;11674;52.428;13.584;2023-01-20T11:29:57;40.58;;;19.23;;
23015;SDS011;11674;52.428;13.584;2023-01-20T11:35:19;38.63;;;17.20;;
23015;SDS011;11674;52.428;13.584;2023-01-20T11:40:27;37.08;;;18.13;;
23015;SDS011;11674;52.428;13.584;2023-01-20T11:45:35;36.67;;;18.15;;
23015;SDS011;11674;52.428;13.584;2023-01-20T11:50:45;42.55;;;18.90;;
23015;SDS011;11674;52.428;13.584;2023-01-20T11:56:39;44.15;;;19.85;;
23015;SDS011;11674;52.428;13.584;2023-01-20T12:01:54;41.35;;;18.70;;
23015;SDS011;11674;52.428;13.584;2023-01-20T12:17:40;45.75;;;20.52;;
23015;SDS011;11674;52.428;13.584;2023-01-20T12:34:10;40.10;;;19.83;;
23015;SDS011;11674;52.428;13.584;2023-01-20T12:39:24;49.38;;;21.27;;
23015;SDS011;11674;52.428;13.584;2023-01-20T13:06:32;48.22;;;21.13;;
23015;SDS011;11674;52.428;13.584;2023-01-20T13:23:14;36.92;;;19.55;;
23015;SDS011;11674;52.428;13.584;2023-01-20T13:28:27;43.22;;;20.65;;
23015;SDS011;11674;52.428;13.584;2023-01-20T13:33:39;46.17;;;21.77;;
23015;SDS011;11674;52.428;13.584;2023-01-20T13:38:48;46.75;;;21.70;;
23015;SDS011;11674;52.428;13.584;2023-01-20T13:43:56;39.67;;;20.02;;
23015;SDS011;11674;52.428;13.584;2023-01-20T13:49:11;44.55;;;20.70;;
23015;SDS011;11674;52.428;13.584;2023-01-20T13:59:33;43.15;;;20.40;;
23015;SDS011;11674;52.428;13.584;2023-01-20T14:04:44;42.33;;;20.15;;
23015;SDS011;11674;52.428;13.584;2023-01-20T14:09:52;45.10;;;21.40;;
23015;SDS011;11674;52.428;13.584;2023-01-20T14:15:00;50.33;;;21.70;;
23015;SDS011;11674;52.428;13.584;2023-01-20T14:20:21;48.70;;;20.60;;
23015;SDS011;11674;52.428;13.584;2023-01-20T14:25:29;49.30;;;21.25;;
23015;SDS011;11674;52.428;13.584;2023-01-20T14:30:36;48.45;;;20.98;;
23015;SDS011;11674;52.428;13.584;2023-01-20T14:35:43;43.60;;;20.40;;
23015;SDS011;11674;52.428;13.584;2023-01-20T14:40:50;41.72;;;21.23;;
23015;SDS011;11674;52.428;13.584;2023-01-20T14:45:57;44.97;;;20.20;;
23015;SDS011;11674;52.428;13.584;2023-01-20T14:51:04;49.53;;;21.83;;
23015;SDS011;11674;52.428;13.584;2023-01-20T14:56:18;51.15;;;22.02;;
23015;SDS011;11674;52.428;13.584;2023-01-20T15:01:26;46.10;;;21.40;;
23015;SDS011;11674;52.428;13.584;2023-01-20T15:06:33;46.35;;;20.42;;
23015;SDS011;11674;52.428;13.584;2023-01-20T15:11:40;53.05;;;21.10;;
23015;SDS011;11674;52.428;13.584;2023-01-20T15:16:48;46.35;;;19.55;;
23015;SDS011;11674;52.428;13.584;2023-01-20T15:22:09;41.30;;;20.65;;
23015;SDS011;11674;52.428;13.584;2023-01-20T15:27:28;48.88;;;20.98;;
23015;SDS011;11674;52.428;13.584;2023-01-20T15:32:36;44.30;;;21.23;;
23015;SDS011;11674;52.428;13.584;2023-01-20T15:37:44;45.10;;;19.45;;
23015;SDS011;11674;52.428;13.584;2023-01-20T15:42:51;41.55;;;18.55;;
23015;SDS011;11674;52.428;13.584;2023-01-20T15:47:57;37.35;;;18.13;;
23015;SDS011;11674;52.428;13.584;2023-01-20T15:53:04;45.10;;;18.48;;
23015;SDS011;11674;52.428;13.584;2023-01-20T15:58:22;39.75;;;19.05;;
23015;SDS011;11674;52.428;13.584;2023-01-20T16:03:34;39.40;;;18.40;;
23015;SDS011;11674;52.428;13.584;2023-01-20T16:08:43;40.70;;;19.08;;
23015;SDS011;11674;52.428;13.584;2023-01-20T16:13:51;39.80;;;17.73;;
23015;SDS011;11674;52.428;13.584;2023-01-20T16:18:58;46.15;;;19.75;;
23015;SDS011;11674;52.428;13.584;2023-01-20T16:24:05;41.83;;;19.88;;
23015;SDS011;11674;52.428;13.584;2023-01-20T16:29:12;44.00;;;19.42;;
23015;SDS011;11674;52.428;13.584;2023-01-20T16:34:19;48.10;;;19.60;;
23015;SDS011;11674;52.428;13.584;2023-01-20T16:39:26;45.25;;;19.42;;
23015;SDS011;11674;52.428;13.584;2023-01-20T16:44:33;39.90;;;20.13;;
23015;SDS011;11674;52.428;13.584;2023-01-20T16:49:41;44.17;;;20.45;;
23015;SDS011;11674;52.428;13.584;2023-01-20T16:54:48;45.83;;;20.45;;
23015;SDS011;11674;52.428;13.584;2023-01-20T16:59:55;52.17;;;21.05;;
23015;SDS011;11674;52.428;13.584;2023-01-20T17:05:03;50.35;;;19.98;;
23015;SDS011;11674;52.428;13.584;2023-01-20T17:10:10;45.53;;;19.85;;
23015;SDS011;11674;52.428;13.584;2023-01-20T17:15:18;40.35;;;19.75;;
23015;SDS011;11674;52.428;13.584;2023-01-20T17:20:25;44.70;;;19.95;;
23015;SDS011;11674;52.428;13.584;2023-01-20T17:25:32;45.63;;;19.67;;
23015;SDS011;11674;52.428;13.584;2023-01-20T17:30:38;47.70;;;19.52;;
23015;SDS011;11674;52.428;13.584;2023-01-20T17:35:53;47.03;;;20.25;;
23015;SDS011;11674;52.428;13.584;2023-01-20T17:41:05;41.72;;;19.65;;
23015;SDS011;11674;52.428;13.584;2023-01-20T17:46:16;47.72;;;21.27;;
23015;SDS011;11674;52.428;13.584;2023-01-20T17:51:26;44.10;;;19.90;;
23015;SDS011;11674;52.428;13.584;2023-01-20T17:56:33;43.05;;;19.83;;
23015;SDS011;11674;52.428;13.584;2023-01-20T18:01:41;43.50;;;18.85;;
23015;SDS011;11674;52.428;13.584;2023-01-20T18:06:47;45.00;;;21.20;;
23015;SDS011;11674;52.428;13.584;2023-01-20T18:12:01;40.45;;;18.52;;
23015;SDS011;11674;52.428;13.584;2023-01-20T18:17:08;51.78;;;20.83;;
23015;SDS011;11674;52.428;13.584;2023-01-20T18:22:16;43.05;;;19.80;;
23015;SDS011;11674;52.428;13.584;2023-01-20T18:27:22;47.05;;;19.67;;
23015;SDS011;11674;52.428;13.584;2023-01-20T18:32:29;44.80;;;18.90;;
23015;SDS011;11674;52.428;13.584;2023-01-20T18:37:37;45.85;;;19.40;;
23015;SDS011;11674;52.428;13.584;2023-01-20T18:42:43;42.80;;;19.00;;
23015;SDS011;11674;52.428;13.584;2023-01-20T18:47:51;39.25;;;17.10;;
23015;SDS011;11674;52.428;13.584;2023-01-20T18:52:58;36.92;;;17.38;;
23015;SDS011;11674;52.428;13.584;2023-01-20T18:58:05;51.38;;;20.27;;
23015;SDS011;11674;52.428;13.584;2023-01-20T19:03:12;41.60;;;18.15;;
23015;SDS011;11674;52.428;13.584;2023-01-20T19:08:22;38.72;;;16.85;;
23015;SDS011;11674;52.428;13.584;2023-01-20T19:13:29;27.75;;;14.30;;
23015;SDS011;11674;52.428;13.584;2023-01-20T19:18:40;34.58;;;15.63;;
23015;SDS011;11674;52.428;13.584;2023-01-20T19:23:52;34.38;;;15.90;;
23015;SDS011;11674;52.428;13.584;2023-01-20T19:29:02;31.38;;;13.88;;
23015;SDS011;11674;52.428;13.584;2023-01-20T19:34:16;35.33;;;15.02;;
23015;SDS011;11674;52.428;13.584;2023-01-20T19:39:23;35.60;;;13.93;;
23015;SDS011;11674;52.428;13.584;2023-01-20T19:44:30;34.58;;;13.25;;
23015;SDS011;11674;52.428;13.584;2023-01-20T19:49:37;29.05;;;13.27;;
23015;SDS011;11674;52.428;13.584;2023-01-20T19:54:44;27.60;;;13.15;;
23015;SDS011;11674;52.428;13.584;2023-01-20T19:59:51;28.80;;;12.50;;
23015;SDS011;11674;52.428;13.584;2023-01-20T20:05:04;27.55;;;12.77;;
23015;SDS011;11674;52.428;13.584;2023-01-20T20:10:20;29.02;;;13.73;;
23015;SDS011;11674;52.428;13.584;2023-01-20T20:15:28;27.17;;;13.57;;
23015;SDS011;11674;52.428;13.584;2023-01-20T20:20:35;27.15;;;14.52;;
23015;SDS011;11674;52.428;13.584;2023-01-20T20:25:46;23.23;;;12.43;;
23015;SDS011;11674;52.428;13.584;2023-01-20T20:31:05;23.10;;;11.80;;
23015;SDS011;11674;52.428;13.584;2023-01-20T20:36:13;22.77;;;11.57;;
23015;SDS011;11674;52.428;13.584;2023-01-20T20:41:21;25.95;;;11.50;;
23015;SDS011;11674;52.428;13.584;2023-01-20T20:46:28;24.48;;;11.75;;
23015;SDS011;11674;52.428;13.584;2023-01-20T20:51:35;23.10;;;12.35;;
23015;SDS011;11674;52.428;13.584;2023-01-20T20:56:42;26.35;;;12.65;;
23015;SDS011;11674;52.428;13.584;2023-01-20T21:01:50;30.52;;;14.73;;
23015;SDS011;11674;52.428;13.584;2023-01-20T21:06:57;30.25;;;14.45;;
23015;SDS011;11674;52.428;13.584;2023-01-20T21:12:04;33.85;;;15.57;;
23015;SDS011;11674;52.428;13.584;2023-01-20T21:17:11;30.30;;;15.25;;
23015;SDS011;11674;52.428;13.584;2023-01-20T21:22:18;31.75;;;15.50;;
23015;SDS011;11674;52.428;13.584;2023-01-20T21:27:25;26.40;;;14.45;;
23015;SDS011;11674;52.428;13.584;2023-01-20T21:32:32;32.88;;;14.10;;
23015;SDS011;11674;52.428;13.584;2023-01-20T21:37:39;28.70;;;14.07;;
23015;SDS011;11674;52.428;13.584;2023-01-20T21:42:46;25.45;;;13.75;;
23015;SDS011;11674;52.428;13.584;2023-01-20T21:47:53;26.27;;;12.77;;
23015;SDS011;11674;52.428;13.584;2023-01-20T21:53:01;23.33;;;11.43;;
23015;SDS011;11674;52.428;13.584;2023-01-20T21:58:08;27.38;;;12.65;;
23015;SDS011;11674;52.428;13.584;2023-01-20T22:03:15;24.52;;;11.32;;
23015;SDS011;11674;52.428;13.584;2023-01-20T22:08:22;23.02;;;11.40;;
23015;SDS011;11674;52.428;13.584;2023-01-20T22:13:29;24.08;;;10.85;;
23015;SDS011;11674;52.428;13.584;2023-01-20T22:18:36;21.58;;;11.32;;
23015;SDS011;11674;52.428;13.584;2023-01-20T22:23:43;22.70;;;10.75;;
23015;SDS011;11674;52.428;13.584;2023-01-20T22:28:50;21.27;;;10.30;;
23015;SDS011;11674;52.428;13.584;2023-01-20T22:33:57;23.65;;;10.45;;
23015;SDS011;11674;52.428;13.584;2023-01-20T22:39:04;22.23;;;9.85;;
23015;SDS011;11674;52.428;13.584;2023-01-20T22:44:12;24.58;;;10.13;;
23015;SDS011;11674;52.428;13.584;2023-01-20T22:49:19;16.75;;;8.30;;
23015;SDS011;11674;52.428;13.584;2023-01-20T22:54:26;19.40;;;9.10;;
23015;SDS011;11674;52.428;13.584;2023-01-20T22:59:33;24.08;;;9.50;;
23015;SDS011;11674;52.428;13.584;2023-01-20T23:04:40;20.30;;;9.57;;
23015;SDS011;11674;52.428;13.584;2023-01-20T23:09:47;22.98;;;8.82;;
23015;SDS011;11674;52.428;13.584;2023-01-20T23:14:54;20.40;;;8.30;;
23015;SDS011;11674;52.428;13.584;2023-01-20T23:20:01;18.40;;;8.75;;
23015;SDS011;11674;52.428;13.584;2023-01-20T23:25:08;22.38;;;9.07;;
23015;SDS011;11674;52.428;13.584;2023-01-20T23:30:16;19.70;;;8.85;;
23015;SDS011;11674;52.428;13.584;2023-01-20T23:35:23;19.13;;;8.57;;
23015;SDS011;11674;52.428;13.584;2023-01-20T23:40:30;18.15;;;8.68;;
23015;SDS011;11674;52.428;13.584;2023-01-20T23:45:37;23.90;;;9.20;;
23015;SDS011;11674;52.428;13.584;2023-01-20T23:50:44;21.35;;;9.88;;
23015;SDS011;11674;52.428;13.584;2023-01-20T23:55:51;25.05;;;9.90;;
